01:12
Airports
History
Links
Donate
Help keep this website running!
PayPal
Bitcoin
Information on this page is community maintained and may be outdated or inaccurate and is intended for reference only or PC simulator navigating!
Always use approved charts for navigating.
EDDN
Nurnberg
Nurnberg (EDDN)
Nuernberg, Bayern, Germany (90411)
(C)
Lat/Lng:49° 29' 55.48" N / 11° 4' 39.29" E
49.498744 / 11.07758
Elevation:1045'ft 319mMSL
ID / ICAO:EDDN
Runways:1
Longest:(10-28) 2,687.6m 8,818ft Asphalt
Controlled:Yes
Distance To
Airport ID:
Airport Radio Frequencies
ATIS: 123.07
Ground: 118.1
Tower: 118.3, 120.65, 125.8, 127.97
Approach: 118.97, 119.47
Nearby VORs <50NM
Nearby NDBs
METARUpdated 04-27-17 00:50 GMT
Altimeter: 29.88
Visibility: 6.2 statute miles
Wind: 2 knots (VRB°)
Temp: 3°c 37°f
Humidity: 93.1%

METAR: EDDN 270050Z VRB02KT CAVOK 03/02 Q1012

(Powered by phpweather)
Runway 10 / 28
Dimensions:2687.6 x 45.1m 8818' x 148'ft
Surface:Asphalt
Edge Lights:Medium intensity
Runway 10 [A]Runway 28 [B]
Heading:098°TH 278°TH
Lat:
Lng:
49° 30' 1.99"N
11° 3' 33.06"E
49° 29' 48.96"N
11° 5' 45.51"E
ALS:ALSF-IALSF-II
TDZ:Yes, lightedYes, lighted
Google Map
Nearby Airports
(C) Herzogenaurach 10.9 NM
EDQH WNW 302°
(C) Roth 19.5 NM
ETHR (WX) S 177°
(C) BURG FEUERSTEIN 20.5 NM
EDQE N
(U) Neustadt Aisch 23.2 NM
EDQN WNW 285°
(U) BAMBERG AAF 30.1 NM
ETEJ NNW 345°
(U) VILSECK AAF 32.3 NM
ETOI ENE 73°
(C) HOHENFELS AAF 39.3 NM
ETIH (WX) ESE 119°
VFR Chart
Flight Planning at SkyVector.com